sensor_id;sensor_type;location;lat;lon;timestamp;pressure;altitude;pressure_sealevel;temperature;humidity
79645;BME280;69117;47.148;18.954;2023-04-25T00:01:51;99596.75;;;10.61;17.65
79645;BME280;69117;47.148;18.954;2023-04-25T00:04:52;99598.06;;;10.57;17.69
79645;BME280;69117;47.148;18.954;2023-04-25T00:07:54;99575.94;;;10.50;17.28
79645;BME280;69117;47.148;18.954;2023-04-25T00:10:57;99587.00;;;10.53;17.29
79645;BME280;69117;47.148;18.954;2023-04-25T00:13:58;99583.03;;;10.58;17.41
79645;BME280;69117;47.148;18.954;2023-04-25T00:17:03;99584.19;;;10.55;17.08
79645;BME280;69117;47.148;18.954;2023-04-25T00:20:06;99584.19;;;10.55;17.04
79645;BME280;69117;47.148;18.954;2023-04-25T00:23:10;99584.19;;;10.55;17.15
79645;BME280;69117;47.148;18.954;2023-04-25T00:26:12;99581.06;;;10.51;17.10
79645;BME280;69117;47.148;18.954;2023-04-25T00:29:13;99551.16;;;10.35;17.33
79645;BME280;69117;47.148;18.954;2023-04-25T00:32:15;99563.22;;;10.45;17.18
79645;BME280;69117;47.148;18.954;2023-04-25T00:35:17;99578.25;;;10.53;16.89
79645;BME280;69117;47.148;18.954;2023-04-25T00:38:18;99566.69;;;10.54;17.01
79645;BME280;69117;47.148;18.954;2023-04-25T00:41:20;99556.13;;;10.54;16.90
79645;BME280;69117;47.148;18.954;2023-04-25T00:44:22;99557.63;;;10.57;16.76
79645;BME280;69117;47.148;18.954;2023-04-25T00:47:25;99548.03;;;10.55;16.55
79645;BME280;69117;47.148;18.954;2023-04-25T00:50:26;99558.44;;;10.57;17.10
79645;BME280;69117;47.148;18.954;2023-04-25T00:53:30;99560.28;;;10.57;17.14
79645;BME280;69117;47.148;18.954;2023-04-25T00:56:33;99551.19;;;10.59;16.95
79645;BME280;69117;47.148;18.954;2023-04-25T00:59:36;99565.56;;;10.57;16.68
79645;BME280;69117;47.148;18.954;2023-04-25T01:02:37;99564.56;;;10.66;16.82
79645;BME280;69117;47.148;18.954;2023-04-25T01:05:41;99558.78;;;10.62;16.55
79645;BME280;69117;47.148;18.954;2023-04-25T01:08:43;99562.25;;;10.63;16.70
79645;BME280;69117;47.148;18.954;2023-04-25T01:11:44;99566.69;;;10.70;16.49
79645;BME280;69117;47.148;18.954;2023-04-25T01:14:46;99551.00;;;10.61;16.40
79645;BME280;69117;47.148;18.954;2023-04-25T01:17:48;99555.63;;;10.67;16.39
79645;BME280;69117;47.148;18.954;2023-04-25T01:20:51;99525.09;;;10.48;16.53
79645;BME280;69117;47.148;18.954;2023-04-25T01:23:54;99555.31;;;10.70;16.51
79645;BME280;69117;47.148;18.954;2023-04-25T01:26:56;99544.75;;;10.53;16.42
79645;BME280;69117;47.148;18.954;2023-04-25T01:29:59;99559.28;;;10.66;16.58
79645;BME280;69117;47.148;18.954;2023-04-25T01:33:07;99551.84;;;10.61;16.19
79645;BME280;69117;47.148;18.954;2023-04-25T01:36:10;99542.09;;;10.53;16.16
79645;BME280;69117;47.148;18.954;2023-04-25T01:39:12;99556.78;;;10.64;15.24
79645;BME280;69117;47.148;18.954;2023-04-25T01:42:13;99545.41;;;10.55;15.62
79645;BME280;69117;47.148;18.954;2023-04-25T01:45:15;99554.00;;;10.66;15.38
79645;BME280;69117;47.148;18.954;2023-04-25T01:48:17;99557.31;;;10.60;15.11
79645;BME280;69117;47.148;18.954;2023-04-25T01:51:19;99549.38;;;10.60;15.31
79645;BME280;69117;47.148;18.954;2023-04-25T01:54:21;99558.44;;;10.57;15.27
79645;BME280;69117;47.148;18.954;2023-04-25T01:57:23;99552.50;;;10.63;15.56
79645;BME280;69117;47.148;18.954;2023-04-25T02:00:24;99562.41;;;10.61;15.68
79645;BME280;69117;47.148;18.954;2023-04-25T02:03:26;99541.44;;;10.60;15.43
79645;BME280;69117;47.148;18.954;2023-04-25T02:06:28;99540.31;;;10.62;15.67
79645;BME280;69117;47.148;18.954;2023-04-25T02:09:29;99553.66;;;10.69;15.39
79645;BME280;69117;47.148;18.954;2023-04-25T02:12:31;99542.94;;;10.54;15.53
79645;BME280;69117;47.148;18.954;2023-04-25T02:15:33;99556.28;;;10.61;15.29
79645;BME280;69117;47.148;18.954;2023-04-25T02:18:35;99554.97;;;10.65;15.31
79645;BME280;69117;47.148;18.954;2023-04-25T02:21:38;99558.13;;;10.60;15.64
79645;BME280;69117;47.148;18.954;2023-04-25T02:24:40;99558.78;;;10.62;15.53
79645;BME280;69117;47.148;18.954;2023-04-25T02:27:42;99569.50;;;10.61;15.67
79645;BME280;69117;47.148;18.954;2023-04-25T02:30:44;99549.84;;;10.55;15.71
79645;BME280;69117;47.148;18.954;2023-04-25T02:33:46;99562.59;;;10.60;15.62
79645;BME280;69117;47.148;18.954;2023-04-25T02:36:48;99565.69;;;10.55;15.95
79645;BME280;69117;47.148;18.954;2023-04-25T02:39:52;99567.53;;;10.54;15.90
79645;BME280;69117;47.148;18.954;2023-04-25T02:42:53;99544.59;;;10.47;15.71
79645;BME280;69117;47.148;18.954;2023-04-25T02:45:55;99539.13;;;10.48;15.59
79645;BME280;69117;47.148;18.954;2023-04-25T02:48:56;99557.28;;;10.51;15.84
79645;BME280;69117;47.148;18.954;2023-04-25T02:51:58;99566.84;;;10.52;15.46
79645;BME280;69117;47.148;18.954;2023-04-25T02:55:00;99549.53;;;10.50;15.62
79645;BME280;69117;47.148;18.954;2023-04-25T02:58:01;99565.72;;;10.47;15.70
79645;BME280;69117;47.148;18.954;2023-04-25T03:01:03;99547.69;;;10.34;15.95
79645;BME280;69117;47.148;18.954;2023-04-25T03:04:05;99524.56;;;10.20;15.99
79645;BME280;69117;47.148;18.954;2023-04-25T03:07:07;99545.56;;;10.29;15.74
79645;BME280;69117;47.148;18.954;2023-04-25T03:10:08;99545.56;;;10.29;16.03
79645;BME280;69117;47.148;18.954;2023-04-25T03:13:10;99560.22;;;10.40;16.07
79645;BME280;69117;47.148;18.954;2023-04-25T03:16:12;99530.66;;;10.20;16.14
79645;BME280;69117;47.148;18.954;2023-04-25T03:19:14;99538.06;;;10.17;16.34
79645;BME280;69117;47.148;18.954;2023-04-25T03:22:18;99545.34;;;10.23;16.00
79645;BME280;69117;47.148;18.954;2023-04-25T03:25:19;99548.81;;;10.23;16.06
79645;BME280;69117;47.148;18.954;2023-04-25T03:28:21;99562.81;;;10.24;16.31
79645;BME280;69117;47.148;18.954;2023-04-25T03:31:23;99565.94;;;10.19;16.23
79645;BME280;69117;47.148;18.954;2023-04-25T03:34:25;99558.50;;;10.06;16.07
79645;BME280;69117;47.148;18.954;2023-04-25T03:37:27;99571.72;;;10.15;16.60
79645;BME280;69117;47.148;18.954;2023-04-25T03:40:28;99569.88;;;10.07;16.49
79645;BME280;69117;47.148;18.954;2023-04-25T03:43:30;99561.78;;;10.00;16.28
79645;BME280;69117;47.148;18.954;2023-04-25T03:46:32;99581.22;;;9.99;16.58
79645;BME280;69117;47.148;18.954;2023-04-25T03:49:34;99577.47;;;10.02;16.69
79645;BME280;69117;47.148;18.954;2023-04-25T03:52:35;99578.28;;;10.02;16.49
79645;BME280;69117;47.148;18.954;2023-04-25T03:55:37;99565.59;;;10.06;16.34
79645;BME280;69117;47.148;18.954;2023-04-25T03:58:39;99576.31;;;10.13;16.49
79645;BME280;69117;47.148;18.954;2023-04-25T04:01:40;99577.31;;;10.12;16.23
79645;BME280;69117;47.148;18.954;2023-04-25T04:04:45;99568.69;;;9.93;16.13
79645;BME280;69117;47.148;18.954;2023-04-25T04:07:47;99576.25;;;9.88;16.33
79645;BME280;69117;47.148;18.954;2023-04-25T04:10:49;99582.97;;;9.82;16.62
79645;BME280;69117;47.148;18.954;2023-04-25T04:13:50;99567.78;;;9.76;16.13
79645;BME280;69117;47.148;18.954;2023-04-25T04:16:53;99573.00;;;9.68;16.96
79645;BME280;69117;47.148;18.954;2023-04-25T04:19:54;99569.53;;;9.59;16.78
79645;BME280;69117;47.148;18.954;2023-04-25T04:22:56;99596.25;;;9.64;17.16
79645;BME280;69117;47.148;18.954;2023-04-25T04:25:57;99596.41;;;9.63;16.52
79645;BME280;69117;47.148;18.954;2023-04-25T04:28:59;99573.88;;;9.43;16.80
79645;BME280;69117;47.148;18.954;2023-04-25T04:32:01;99586.94;;;9.52;17.02
79645;BME280;69117;47.148;18.954;2023-04-25T04:35:04;99603.09;;;9.49;16.52
79645;BME280;69117;47.148;18.954;2023-04-25T04:38:07;99604.19;;;9.38;17.02
79645;BME280;69117;47.148;18.954;2023-04-25T04:41:09;99607.97;;;9.36;17.08
79645;BME280;69117;47.148;18.954;2023-04-25T04:44:11;99589.44;;;9.28;17.54
79645;BME280;69117;47.148;18.954;2023-04-25T04:47:13;99597.59;;;9.16;17.76
79645;BME280;69117;47.148;18.954;2023-04-25T04:50:15;99586.13;;;9.00;18.02
79645;BME280;69117;47.148;18.954;2023-04-25T04:53:17;99600.19;;;9.08;17.75
79645;BME280;69117;47.148;18.954;2023-04-25T04:56:19;99592.91;;;9.02;17.71
79645;BME280;69117;47.148;18.954;2023-04-25T04:59:22;99596.16;;;8.96;17.60
79645;BME280;69117;47.148;18.954;2023-04-25T05:02:23;99607.19;;;9.00;17.94
79645;BME280;69117;47.148;18.954;2023-04-25T05:05:25;99601.56;;;8.94;17.78
79645;BME280;69117;47.148;18.954;2023-04-25T05:08:27;99578.09;;;8.83;18.05
79645;BME280;69117;47.148;18.954;2023-04-25T05:11:28;99600.72;;;8.94;17.85
79645;BME280;69117;47.148;18.954;2023-04-25T05:14:30;99602.06;;;8.98;17.89
79645;BME280;69117;47.148;18.954;2023-04-25T05:17:32;99594.78;;;8.92;17.70
79645;BME280;69117;47.148;18.954;2023-04-25T05:20:34;99596.28;;;8.94;17.83
79645;BME280;69117;47.148;18.954;2023-04-25T05:23:35;99601.72;;;8.93;17.59
79645;BME280;69117;47.148;18.954;2023-04-25T05:26:37;99594.13;;;8.90;17.93
79645;BME280;69117;47.148;18.954;2023-04-25T05:29:39;99597.28;;;8.93;17.79
79645;BME280;69117;47.148;18.954;2023-04-25T05:32:40;99583.91;;;8.87;17.71
79645;BME280;69117;47.148;18.954;2023-04-25T05:35:42;99579.28;;;8.89;17.65
79645;BME280;69117;47.148;18.954;2023-04-25T05:38:44;99571.69;;;8.86;17.72
79645;BME280;69117;47.148;18.954;2023-04-25T05:41:46;99604.41;;;9.01;17.77
79645;BME280;69117;47.148;18.954;2023-04-25T05:44:47;99596.06;;;9.06;17.67
79645;BME280;69117;47.148;18.954;2023-04-25T05:47:49;99594.41;;;9.05;17.63
79645;BME280;69117;47.148;18.954;2023-04-25T05:50:51;99582.38;;;9.02;17.54
79645;BME280;69117;47.148;18.954;2023-04-25T05:53:53;99604.22;;;9.21;17.02
79645;BME280;69117;47.148;18.954;2023-04-25T05:56:56;99590.75;;;9.24;16.91
79645;BME280;69117;47.148;18.954;2023-04-25T05:59:58;99600.41;;;9.41;16.88
79645;BME280;69117;47.148;18.954;2023-04-25T06:02:59;99602.13;;;9.50;16.62
79645;BME280;69117;47.148;18.954;2023-04-25T06:06:02;99608.78;;;9.62;16.42
79645;BME280;69117;47.148;18.954;2023-04-25T06:09:04;99610.16;;;9.75;16.36
79645;BME280;69117;47.148;18.954;2023-04-25T06:12:06;99607.53;;;9.83;16.11
79645;BME280;69117;47.148;18.954;2023-04-25T06:15:08;99591.69;;;9.75;15.69
79645;BME280;69117;47.148;18.954;2023-04-25T06:18:27;99605.44;;;9.95;16.15
79645;BME280;69117;47.148;18.954;2023-04-25T06:21:28;99608.47;;;10.08;15.61
79645;BME280;69117;47.148;18.954;2023-04-25T06:24:30;99600.81;;;10.31;16.15
79645;BME280;69117;47.148;18.954;2023-04-25T06:27:32;99615.03;;;10.46;15.31
79645;BME280;69117;47.148;18.954;2023-04-25T06:30:34;99608.28;;;10.52;15.63
79645;BME280;69117;47.148;18.954;2023-04-25T06:33:35;99626.97;;;10.67;15.36
79645;BME280;69117;47.148;18.954;2023-04-25T06:36:37;99614.44;;;10.69;15.23
79645;BME280;69117;47.148;18.954;2023-04-25T06:39:38;99625.19;;;10.84;15.07
79645;BME280;69117;47.148;18.954;2023-04-25T06:42:41;99618.72;;;11.03;15.02
79645;BME280;69117;47.148;18.954;2023-04-25T06:45:43;99628.28;;;11.28;14.86
79645;BME280;69117;47.148;18.954;2023-04-25T06:48:48;99618.19;;;11.48;14.71
79645;BME280;69117;47.148;18.954;2023-04-25T06:51:49;99626.53;;;11.76;14.46
79645;BME280;69117;47.148;18.954;2023-04-25T06:54:51;99629.66;;;11.80;14.14
79645;BME280;69117;47.148;18.954;2023-04-25T06:57:53;99622.88;;;11.94;14.94
79645;BME280;69117;47.148;18.954;2023-04-25T07:00:54;99630.97;;;11.92;14.64
79645;BME280;69117;47.148;18.954;2023-04-25T07:03:56;99622.91;;;11.77;14.44
79645;BME280;69117;47.148;18.954;2023-04-25T07:06:58;99621.06;;;11.86;14.69
79645;BME280;69117;47.148;18.954;2023-04-25T07:10:02;99630.13;;;12.08;15.19
79645;BME280;69117;47.148;18.954;2023-04-25T07:13:04;99622.53;;;11.97;15.16
79645;BME280;69117;47.148;18.954;2023-04-25T07:16:05;99602.78;;;11.60;15.50
79645;BME280;69117;47.148;18.954;2023-04-25T07:19:07;99634.53;;;11.68;15.67
79645;BME280;69117;47.148;18.954;2023-04-25T07:22:09;99626.94;;;11.57;15.10
79645;BME280;69117;47.148;18.954;2023-04-25T07:25:10;99608.41;;;11.65;15.81
79645;BME280;69117;47.148;18.954;2023-04-25T07:28:12;99630.22;;;11.59;15.73
79645;BME280;69117;47.148;18.954;2023-04-25T07:31:14;99622.72;;;11.79;15.59
79645;BME280;69117;47.148;18.954;2023-04-25T07:34:17;99617.44;;;11.70;15.61
79645;BME280;69117;47.148;18.954;2023-04-25T07:37:19;99608.41;;;11.65;15.15
79645;BME280;69117;47.148;18.954;2023-04-25T07:40:21;99616.69;;;11.62;15.59
79645;BME280;69117;47.148;18.954;2023-04-25T07:43:23;99627.34;;;11.77;15.11
79645;BME280;69117;47.148;18.954;2023-04-25T07:46:24;99638.75;;;12.02;14.85
79645;BME280;69117;47.148;18.954;2023-04-25T07:49:26;99629.56;;;12.21;15.03
79645;BME280;69117;47.148;18.954;2023-04-25T07:52:28;99628.16;;;12.33;14.82
79645;BME280;69117;47.148;18.954;2023-04-25T07:55:29;99645.00;;;12.40;14.47
79645;BME280;69117;47.148;18.954;2023-04-25T07:58:31;99615.44;;;12.28;14.30
79645;BME280;69117;47.148;18.954;2023-04-25T08:01:34;99631.63;;;12.33;13.73
79645;BME280;69117;47.148;18.954;2023-04-25T08:04:35;99617.00;;;12.14;13.56
79645;BME280;69117;47.148;18.954;2023-04-25T08:07:37;99628.28;;;12.40;14.08
79645;BME280;69117;47.148;18.954;2023-04-25T08:10:41;99611.47;;;12.24;13.56
79645;BME280;69117;47.148;18.954;2023-04-25T08:13:43;99637.91;;;12.41;13.89
79645;BME280;69117;47.148;18.954;2023-04-25T08:16:45;99629.84;;;12.57;13.82
79645;BME280;69117;47.148;18.954;2023-04-25T08:19:46;99631.69;;;12.56;13.40
79645;BME280;69117;47.148;18.954;2023-04-25T08:22:48;99628.41;;;12.46;13.50
79645;BME280;69117;47.148;18.954;2023-04-25T08:25:50;99619.56;;;12.62;13.85
79645;BME280;69117;47.148;18.954;2023-04-25T08:28:52;99628.44;;;12.92;11.56
79645;BME280;69117;47.148;18.954;2023-04-25T08:31:54;99615.50;;;13.12;11.08
79645;BME280;69117;47.148;18.954;2023-04-25T08:34:55;99629.72;;;13.19;8.94
79645;BME280;69117;47.148;18.954;2023-04-25T08:37:59;99641.72;;;13.53;8.35
79645;BME280;69117;47.148;18.954;2023-04-25T08:41:02;99644.97;;;13.55;9.01
79645;BME280;69117;47.148;18.954;2023-04-25T08:44:05;99642.44;;;13.91;8.89
79645;BME280;69117;47.148;18.954;2023-04-25T08:47:07;99641.44;;;13.92;77.11
79645;BME280;69117;47.148;18.954;2023-04-25T08:50:08;99645.75;;;13.93;74.91
79645;BME280;69117;47.148;18.954;2023-04-25T08:53:12;99655.03;;;13.45;70.91
79645;BME280;69117;47.148;18.954;2023-04-25T08:56:20;99655.72;;;13.91;74.72
79645;BME280;69117;47.148;18.954;2023-04-25T08:59:23;99654.34;;;13.81;71.11
79645;BME280;69117;47.148;18.954;2023-04-25T09:02:25;99633.94;;;13.66;66.88
79645;BME280;69117;47.148;18.954;2023-04-25T09:05:28;99659.28;;;13.54;70.71
79645;BME280;69117;47.148;18.954;2023-04-25T09:08:30;99634.72;;;13.52;70.13
79645;BME280;69117;47.148;18.954;2023-04-25T09:11:32;99650.41;;;13.91;68.79
79645;BME280;69117;47.148;18.954;2023-04-25T09:14:34;99633.84;;;13.74;66.51
79645;BME280;69117;47.148;18.954;2023-04-25T09:17:36;99641.53;;;13.99;65.28
79645;BME280;69117;47.148;18.954;2023-04-25T09:20:42;99649.59;;;14.06;66.58
79645;BME280;69117;47.148;18.954;2023-04-25T09:23:48;99633.56;;;14.14;64.01
79645;BME280;69117;47.148;18.954;2023-04-25T09:26:51;99641.69;;;14.12;66.28
79645;BME280;69117;47.148;18.954;2023-04-25T09:29:57;99653.91;;;14.43;64.60
79645;BME280;69117;47.148;18.954;2023-04-25T09:36:08;99653.88;;;14.07;65.69
79645;BME280;69117;47.148;18.954;2023-04-25T09:39:12;99653.63;;;14.16;65.32
79645;BME280;69117;47.148;18.954;2023-04-25T09:42:17;99646.00;;;14.13;64.02
79645;BME280;69117;47.148;18.954;2023-04-25T09:45:19;99657.38;;;14.22;65.91
79645;BME280;69117;47.148;18.954;2023-04-25T09:48:22;99655.56;;;14.44;65.28
79645;BME280;69117;47.148;18.954;2023-04-25T09:51:26;99657.16;;;14.24;64.93
79645;BME280;69117;47.148;18.954;2023-04-25T09:54:29;99646.38;;;14.25;65.75
79645;BME280;69117;47.148;18.954;2023-04-25T09:57:30;99646.09;;;14.05;63.20
79645;BME280;69117;47.148;18.954;2023-04-25T10:00:33;99648.66;;;14.13;64.49
79645;BME280;69117;47.148;18.954;2023-04-25T10:03:37;99628.44;;;14.49;63.88
79645;BME280;69117;47.148;18.954;2023-04-25T10:06:43;99633.78;;;14.34;60.54
79645;BME280;69117;47.148;18.954;2023-04-25T10:09:48;99625.19;;;14.68;62.91
79645;BME280;69117;47.148;18.954;2023-04-25T10:12:53;99643.53;;;14.63;60.62
79645;BME280;69117;47.148;18.954;2023-04-25T10:16:01;99644.50;;;14.40;59.21
79645;BME280;69117;47.148;18.954;2023-04-25T10:19:03;99626.06;;;14.54;63.19
79645;BME280;69117;47.148;18.954;2023-04-25T10:22:32;99635.91;;;14.24;57.83
79645;BME280;69117;47.148;18.954;2023-04-25T10:25:35;99644.13;;;14.43;56.53
79645;BME280;69117;47.148;18.954;2023-04-25T10:28:57;99635.88;;;14.53;57.76
79645;BME280;69117;47.148;18.954;2023-04-25T10:32:02;99634.28;;;14.23;58.84
79645;BME280;69117;47.148;18.954;2023-04-25T10:35:15;99621.00;;;14.23;60.74
79645;BME280;69117;47.148;18.954;2023-04-25T10:38:18;99642.53;;;14.85;56.58
79645;BME280;69117;47.148;18.954;2023-04-25T10:41:20;99652.66;;;14.54;59.20
79645;BME280;69117;47.148;18.954;2023-04-25T10:44:27;99656.78;;;14.78;59.59
79645;BME280;69117;47.148;18.954;2023-04-25T10:47:36;99636.31;;;15.71;58.54
79645;BME280;69117;47.148;18.954;2023-04-25T10:50:44;99640.09;;;16.31;54.36
79645;BME280;69117;47.148;18.954;2023-04-25T10:56:58;99644.22;;;16.40;56.02
79645;BME280;69117;47.148;18.954;2023-04-25T11:00:10;99639.72;;;16.47;54.42
79645;BME280;69117;47.148;18.954;2023-04-25T11:03:16;99642.81;;;16.03;56.41
79645;BME280;69117;47.148;18.954;2023-04-25T11:06:46;99650.13;;;15.60;56.81
79645;BME280;69117;47.148;18.954;2023-04-25T11:10:03;99643.28;;;16.13;56.90
79645;BME280;69117;47.148;18.954;2023-04-25T11:13:05;99646.59;;;15.52;56.19
79645;BME280;69117;47.148;18.954;2023-04-25T11:16:07;99640.91;;;14.84;56.14
79645;BME280;69117;47.148;18.954;2023-04-25T11:19:20;99658.69;;;14.48;59.22
79645;BME280;69117;47.148;18.954;2023-04-25T11:22:22;99653.16;;;14.49;59.38
79645;BME280;69117;47.148;18.954;2023-04-25T11:25:24;99656.31;;;14.89;58.51
79645;BME280;69117;47.148;18.954;2023-04-25T11:28:27;99663.84;;;16.26;54.41
79645;BME280;69117;47.148;18.954;2023-04-25T11:31:29;99659.22;;;16.07;54.29
79645;BME280;69117;47.148;18.954;2023-04-25T11:34:32;99650.50;;;15.28;52.40
79645;BME280;69117;47.148;18.954;2023-04-25T11:37:34;99663.63;;;16.82;52.23
79645;BME280;69117;47.148;18.954;2023-04-25T11:40:36;99667.41;;;18.39;48.68
79645;BME280;69117;47.148;18.954;2023-04-25T11:43:38;99658.38;;;19.35;44.93
79645;BME280;69117;47.148;18.954;2023-04-25T11:46:43;99660.00;;;18.86;43.83
79645;BME280;69117;47.148;18.954;2023-04-25T11:49:44;99666.81;;;18.82;40.31
79645;BME280;69117;47.148;18.954;2023-04-25T11:52:47;99661.25;;;18.84;41.22
79645;BME280;69117;47.148;18.954;2023-04-25T11:55:49;99676.00;;;18.93;39.94
79645;BME280;69117;47.148;18.954;2023-04-25T11:59:02;99664.94;;;19.14;40.37
79645;BME280;69117;47.148;18.954;2023-04-25T12:02:05;99646.97;;;19.47;40.66
79645;BME280;69117;47.148;18.954;2023-04-25T12:05:09;99655.16;;;19.27;38.52
79645;BME280;69117;47.148;18.954;2023-04-25T12:08:31;99660.63;;;19.38;39.33
79645;BME280;69117;47.148;18.954;2023-04-25T12:11:43;99653.75;;;19.49;40.02
79645;BME280;69117;47.148;18.954;2023-04-25T12:14:47;99651.16;;;19.86;39.56
79645;BME280;69117;47.148;18.954;2023-04-25T12:17:51;99644.66;;;19.75;37.07
79645;BME280;69117;47.148;18.954;2023-04-25T12:20:54;99648.06;;;17.85;38.34
79645;BME280;69117;47.148;18.954;2023-04-25T12:23:56;99625.25;;;19.30;36.39
79645;BME280;69117;47.148;18.954;2023-04-25T12:27:01;99651.22;;;19.29;39.00
79645;BME280;69117;47.148;18.954;2023-04-25T12:30:04;99637.94;;;21.00;37.35
79645;BME280;69117;47.148;18.954;2023-04-25T12:33:06;99637.97;;;20.70;37.08
79645;BME280;69117;47.148;18.954;2023-04-25T12:36:08;99626.78;;;21.38;36.60
79645;BME280;69117;47.148;18.954;2023-04-25T12:39:16;99637.06;;;21.77;36.86
79645;BME280;69117;47.148;18.954;2023-04-25T12:42:18;99639.16;;;22.96;35.24
79645;BME280;69117;47.148;18.954;2023-04-25T12:45:20;99626.00;;;19.18;36.41
79645;BME280;69117;47.148;18.954;2023-04-25T12:48:22;99624.53;;;18.91;38.19
79645;BME280;69117;47.148;18.954;2023-04-25T12:51:25;99642.19;;;18.22;38.68
79645;BME280;69117;47.148;18.954;2023-04-25T12:54:27;99644.56;;;19.38;36.47
79645;BME280;69117;47.148;18.954;2023-04-25T12:57:28;99627.19;;;20.58;36.83
79645;BME280;69117;47.148;18.954;2023-04-25T13:00:30;99633.34;;;19.48;36.68
79645;BME280;69117;47.148;18.954;2023-04-25T13:03:33;99618.03;;;19.05;33.31
79645;BME280;69117;47.148;18.954;2023-04-25T13:06:36;99623.28;;;19.43;34.76
79645;BME280;69117;47.148;18.954;2023-04-25T13:09:37;99626.78;;;20.06;33.19
79645;BME280;69117;47.148;18.954;2023-04-25T13:12:39;99611.63;;;19.56;33.78
79645;BME280;69117;47.148;18.954;2023-04-25T13:15:41;99626.50;;;19.52;33.94
79645;BME280;69117;47.148;18.954;2023-04-25T13:18:43;99607.06;;;19.13;35.46
79645;BME280;69117;47.148;18.954;2023-04-25T13:21:44;99630.91;;;20.57;34.90
79645;BME280;69117;47.148;18.954;2023-04-25T13:24:46;99608.38;;;20.28;33.70
79645;BME280;69117;47.148;18.954;2023-04-25T13:27:48;99621.78;;;20.28;32.54
79645;BME280;69117;47.148;18.954;2023-04-25T13:30:49;99610.19;;;19.97;32.50
79645;BME280;69117;47.148;18.954;2023-04-25T13:33:51;99610.59;;;20.31;31.48
79645;BME280;69117;47.148;18.954;2023-04-25T13:36:53;99613.78;;;21.23;31.77
79645;BME280;69117;47.148;18.954;2023-04-25T13:39:56;99618.59;;;20.49;33.53
79645;BME280;69117;47.148;18.954;2023-04-25T13:42:58;99613.13;;;20.26;33.73
79645;BME280;69117;47.148;18.954;2023-04-25T13:46:00;99604.50;;;20.05;32.67
79645;BME280;69117;47.148;18.954;2023-04-25T13:49:02;99606.28;;;20.11;33.94
79645;BME280;69117;47.148;18.954;2023-04-25T13:52:13;99601.47;;;20.92;34.14
79645;BME280;69117;47.148;18.954;2023-04-25T13:55:14;99593.41;;;20.80;33.35
79645;BME280;69117;47.148;18.954;2023-04-25T13:58:16;99583.44;;;20.39;33.21
79645;BME280;69117;47.148;18.954;2023-04-25T14:01:18;99591.00;;;21.14;33.17
79645;BME280;69117;47.148;18.954;2023-04-25T14:04:20;99602.66;;;20.36;33.79
79645;BME280;69117;47.148;18.954;2023-04-25T14:07:21;99572.94;;;20.07;32.90
79645;BME280;69117;47.148;18.954;2023-04-25T14:10:23;99599.50;;;20.27;34.68
79645;BME280;69117;47.148;18.954;2023-04-25T14:13:25;99599.19;;;19.62;34.91
79645;BME280;69117;47.148;18.954;2023-04-25T14:16:27;99598.97;;;18.95;36.52
79645;BME280;69117;47.148;18.954;2023-04-25T14:19:29;99576.19;;;18.86;37.54
79645;BME280;69117;47.148;18.954;2023-04-25T14:22:30;99609.25;;;17.36;39.33
79645;BME280;69117;47.148;18.954;2023-04-25T14:25:32;99597.38;;;17.26;39.86
79645;BME280;69117;47.148;18.954;2023-04-25T14:28:33;99599.56;;;17.62;41.55
79645;BME280;69117;47.148;18.954;2023-04-25T14:31:35;99605.91;;;17.74;40.19
79645;BME280;69117;47.148;18.954;2023-04-25T14:34:37;99598.38;;;17.58;41.31
79645;BME280;69117;47.148;18.954;2023-04-25T14:37:38;99607.41;;;17.44;40.88
79645;BME280;69117;47.148;18.954;2023-04-25T14:40:40;99604.03;;;17.95;41.13
79645;BME280;69117;47.148;18.954;2023-04-25T14:43:42;99601.56;;;18.38;39.63
79645;BME280;69117;47.148;18.954;2023-04-25T14:46:43;99605.53;;;18.99;37.99
79645;BME280;69117;47.148;18.954;2023-04-25T14:49:46;99599.63;;;19.40;38.13
79645;BME280;69117;47.148;18.954;2023-04-25T14:52:52;99573.66;;;20.45;37.01
79645;BME280;69117;47.148;18.954;2023-04-25T14:55:54;99600.13;;;19.93;35.84
79645;BME280;69117;47.148;18.954;2023-04-25T14:58:55;99588.13;;;18.13;40.25
79645;BME280;69117;47.148;18.954;2023-04-25T15:01:57;99603.69;;;16.71;43.81
79645;BME280;69117;47.148;18.954;2023-04-25T15:05:00;99603.78;;;16.30;44.11
79645;BME280;69117;47.148;18.954;2023-04-25T15:08:02;99597.81;;;15.73;44.70
79645;BME280;69117;47.148;18.954;2023-04-25T15:11:04;99605.91;;;15.65;45.14
79645;BME280;69117;47.148;18.954;2023-04-25T15:14:06;99595.13;;;16.15;43.29
79645;BME280;69117;47.148;18.954;2023-04-25T15:17:07;99608.34;;;17.96;39.92
79645;BME280;69117;47.148;18.954;2023-04-25T15:20:10;99607.31;;;18.42;38.78
79645;BME280;69117;47.148;18.954;2023-04-25T15:23:12;99595.72;;;18.54;37.37
79645;BME280;69117;47.148;18.954;2023-04-25T15:26:14;99604.47;;;19.50;36.90
79645;BME280;69117;47.148;18.954;2023-04-25T15:29:16;99578.38;;;21.15;33.65
79645;BME280;69117;47.148;18.954;2023-04-25T15:32:18;99598.59;;;21.17;33.80
79645;BME280;69117;47.148;18.954;2023-04-25T15:35:20;99603.34;;;19.64;35.63
79645;BME280;69117;47.148;18.954;2023-04-25T15:38:22;99614.94;;;17.87;40.23
79645;BME280;69117;47.148;18.954;2023-04-25T15:41:24;99603.53;;;17.00;40.72
79645;BME280;69117;47.148;18.954;2023-04-25T15:44:26;99619.59;;;16.38;43.40
79645;BME280;69117;47.148;18.954;2023-04-25T15:47:28;99620.94;;;15.73;44.46
79645;BME280;69117;47.148;18.954;2023-04-25T15:50:29;99620.16;;;15.51;45.00
79645;BME280;69117;47.148;18.954;2023-04-25T15:53:31;99623.25;;;15.54;46.01
79645;BME280;69117;47.148;18.954;2023-04-25T15:56:33;99612.88;;;15.31;47.99
79645;BME280;69117;47.148;18.954;2023-04-25T15:59:34;99613.66;;;15.25;47.18
79645;BME280;69117;47.148;18.954;2023-04-25T16:02:37;99603.69;;;15.12;46.88
79645;BME280;69117;47.148;18.954;2023-04-25T16:05:39;99607.88;;;15.00;46.02